createdAt,value
2018-11-05T00:00:33.971Z,8.60
2018-11-05T00:03:03.403Z,8.60
2018-11-05T00:05:32.831Z,8.50
2018-11-05T00:08:02.368Z,8.50
2018-11-05T00:10:31.963Z,8.50
2018-11-05T00:13:01.098Z,8.50
2018-11-05T00:15:30.418Z,8.50
2018-11-05T00:18:00.248Z,8.50
2018-11-05T00:20:29.289Z,8.50
2018-11-05T00:23:05.504Z,8.40
2018-11-05T00:25:34.288Z,8.40
2018-11-05T00:28:03.816Z,8.40
2018-11-05T00:30:33.194Z,8.50
2018-11-05T00:33:02.486Z,8.50
2018-11-05T00:35:31.922Z,8.50
2018-11-05T00:38:01.056Z,8.50
2018-11-05T00:40:29.682Z,8.50
2018-11-05T00:42:59.080Z,8.50
2018-11-05T00:45:28.658Z,8.50
2018-11-05T00:47:57.962Z,8.50
2018-11-05T00:50:26.558Z,8.50
2018-11-05T00:52:55.825Z,8.50
2018-11-05T00:55:24.590Z,8.50
2018-11-05T00:57:54.919Z,8.50
2018-11-05T01:00:24.189Z,8.50
2018-11-05T01:02:53.360Z,8.50
2018-11-05T01:05:23.033Z,8.60
2018-11-05T01:07:52.891Z,8.60
2018-11-05T01:10:22.144Z,8.60
2018-11-05T01:12:51.705Z,8.60
2018-11-05T01:15:20.898Z,8.60
2018-11-05T01:17:50.186Z,8.60
2018-11-05T01:20:19.579Z,8.60
2018-11-05T01:22:49.091Z,8.60
2018-11-05T01:25:18.680Z,8.60
2018-11-05T01:27:47.840Z,8.50
2018-11-05T01:30:17.613Z,8.50
2018-11-05T01:32:46.678Z,8.50
2018-11-05T01:35:15.568Z,8.50
2018-11-05T01:37:44.951Z,8.50
2018-11-05T01:40:15.374Z,8.50
2018-11-05T01:42:44.758Z,8.50
2018-11-05T01:45:15.326Z,8.50
2018-11-05T01:47:44.962Z,8.60
2018-11-05T01:50:15.735Z,8.60
2018-11-05T01:52:46.035Z,8.60
2018-11-05T01:55:15.773Z,8.60
2018-11-05T01:57:45.370Z,8.60
2018-11-05T02:00:16.526Z,8.50
2018-11-05T02:02:46.551Z,8.60
2018-11-05T02:05:15.434Z,8.60
2018-11-05T02:07:46.036Z,8.50
2018-11-05T02:10:16.043Z,8.60
2018-11-05T02:12:45.712Z,8.60
2018-11-05T02:15:15.162Z,8.60
2018-11-05T02:17:45.967Z,8.70
2018-11-05T02:20:16.585Z,8.70
2018-11-05T02:22:46.011Z,8.70
2018-11-05T02:25:15.646Z,8.70
2018-11-05T02:27:45.261Z,8.70
2018-11-05T02:30:17.303Z,8.70
2018-11-05T02:32:46.729Z,8.70
2018-11-05T02:35:16.704Z,8.60
2018-11-05T02:37:46.684Z,8.60
2018-11-05T02:40:17.013Z,8.60
2018-11-05T02:42:46.524Z,8.60
2018-11-05T02:45:17.036Z,8.60
2018-11-05T02:47:46.458Z,8.60
2018-11-05T02:50:16.251Z,8.60
2018-11-05T02:52:46.421Z,8.60
2018-11-05T02:55:15.959Z,8.50
2018-11-05T02:57:45.885Z,8.50
2018-11-05T03:00:16.288Z,8.50
2018-11-05T03:02:45.467Z,8.50
2018-11-05T03:05:16.873Z,8.50
2018-11-05T03:07:47.310Z,8.60
2018-11-05T03:10:17.921Z,8.50
2018-11-05T03:12:47.955Z,8.50
2018-11-05T03:15:18.242Z,8.40
2018-11-05T03:17:47.955Z,8.40
2018-11-05T03:20:17.290Z,8.30
2018-11-05T03:22:46.617Z,8.30
2018-11-05T03:25:16.122Z,8.30
2018-11-05T03:27:45.421Z,8.20
2018-11-05T03:30:19.360Z,8.20
2018-11-05T03:32:48.751Z,8.20
2018-11-05T03:35:17.519Z,8.10
2018-11-05T03:37:47.466Z,8.10
2018-11-05T03:40:16.279Z,8.10
2018-11-05T03:42:46.169Z,8.00
2018-11-05T03:45:16.536Z,8.00
2018-11-05T03:47:46.157Z,8.00
2018-11-05T03:50:17.064Z,8.00
2018-11-05T03:52:46.691Z,7.90
2018-11-05T03:55:16.971Z,7.90
2018-11-05T03:57:46.157Z,7.90
2018-11-05T04:00:16.399Z,8.00
2018-11-05T04:02:45.880Z,8.00
2018-11-05T04:05:15.285Z,8.00
2018-11-05T04:07:44.230Z,8.00
2018-11-05T04:10:14.383Z,8.00
2018-11-05T04:12:44.230Z,7.90
2018-11-05T04:15:13.778Z,7.90
2018-11-05T04:17:43.175Z,7.90
2018-11-05T04:20:14.079Z,7.80
2018-11-05T04:22:43.845Z,7.90
2018-11-05T04:25:13.234Z,7.90
2018-11-05T04:27:42.777Z,7.90
2018-11-05T04:30:14.282Z,7.90
2018-11-05T04:32:44.122Z,7.90
2018-11-05T04:35:14.052Z,7.90
2018-11-05T04:37:44.462Z,7.90
2018-11-05T04:40:14.080Z,7.80
2018-11-05T04:42:44.377Z,7.80
2018-11-05T04:45:14.123Z,7.80
2018-11-05T04:47:44.374Z,7.80
2018-11-05T04:50:14.226Z,7.80
2018-11-05T04:52:44.436Z,7.70
2018-11-05T04:55:14.384Z,7.70
2018-11-05T04:57:44.118Z,7.70
2018-11-05T05:00:15.869Z,7.70
2018-11-05T05:02:44.647Z,7.70
2018-11-05T05:05:15.923Z,7.80
2018-11-05T05:07:44.818Z,7.70
2018-11-05T05:10:14.378Z,7.70
2018-11-05T05:12:44.281Z,7.70
2018-11-05T05:15:13.464Z,7.70
2018-11-05T05:17:43.158Z,7.60
2018-11-05T05:20:14.114Z,7.70
2018-11-05T05:22:43.710Z,7.70
2018-11-05T05:25:13.168Z,7.90
2018-11-05T05:27:42.706Z,7.90
2018-11-05T05:30:15.607Z,7.90
2018-11-05T05:32:46.081Z,7.90
2018-11-05T05:35:15.730Z,7.80
2018-11-05T05:37:45.295Z,7.80
2018-11-05T05:40:15.248Z,7.80
2018-11-05T05:42:44.051Z,7.70
2018-11-05T05:45:13.928Z,7.70
2018-11-05T05:47:43.725Z,7.60
2018-11-05T05:50:17.278Z,7.60
2018-11-05T05:52:48.884Z,7.70
2018-11-05T05:55:18.976Z,7.70
2018-11-05T05:57:48.465Z,7.60
2018-11-05T06:00:18.628Z,7.60
2018-11-05T06:02:47.914Z,7.60
2018-11-05T06:05:17.835Z,7.60
2018-11-05T06:07:47.103Z,7.70
2018-11-05T06:10:16.682Z,7.70
2018-11-05T06:12:46.165Z,7.70
2018-11-05T06:15:16.506Z,7.80
2018-11-05T06:17:45.644Z,7.80
2018-11-05T06:20:19.105Z,7.80
2018-11-05T06:22:49.217Z,7.90
2018-11-05T06:25:18.747Z,7.90
2018-11-05T06:27:54.265Z,7.90
2018-11-05T06:30:23.370Z,7.90
2018-11-05T06:32:53.086Z,8.00
2018-11-05T06:35:22.502Z,8.00
2018-11-05T06:37:52.167Z,8.00
2018-11-05T06:40:21.844Z,8.00
2018-11-05T06:42:51.095Z,8.00
2018-11-05T06:45:22.067Z,8.10
2018-11-05T06:47:51.844Z,8.00
2018-11-05T06:50:24.056Z,8.10
2018-11-05T06:52:53.319Z,8.10
2018-11-05T06:55:22.838Z,8.10
2018-11-05T06:57:52.807Z,8.20
2018-11-05T07:00:23.853Z,8.30
2018-11-05T07:02:52.863Z,8.40
2018-11-05T07:05:22.561Z,8.50
2018-11-05T07:07:51.705Z,8.50
2018-11-05T07:10:24.154Z,8.60
2018-11-05T07:12:53.529Z,8.60
2018-11-05T07:15:23.562Z,8.60
2018-11-05T07:17:52.798Z,8.60
2018-11-05T07:20:22.463Z,8.60
2018-11-05T07:22:52.647Z,8.60
2018-11-05T07:25:21.755Z,8.60
2018-11-05T07:27:50.758Z,8.60
2018-11-05T07:30:22.586Z,8.60
2018-11-05T07:32:52.939Z,8.60
2018-11-05T07:35:22.516Z,8.60
2018-11-05T07:37:51.985Z,8.70
2018-11-05T07:40:22.041Z,8.70
2018-11-05T07:42:51.622Z,8.80
2018-11-05T07:45:22.932Z,8.80
2018-11-05T07:47:53.192Z,8.80
2018-11-05T07:50:24.273Z,8.80
2018-11-05T07:52:54.476Z,8.80
2018-11-05T07:55:23.506Z,8.80
2018-11-05T07:57:53.357Z,8.80
2018-11-05T08:00:28.305Z,8.80
2018-11-05T08:02:58.081Z,8.70
2018-11-05T08:05:27.979Z,8.80
2018-11-05T08:07:58.471Z,8.80
2018-11-05T08:10:27.667Z,8.90
2018-11-05T08:12:57.667Z,9.00
2018-11-05T08:15:27.435Z,9.00
2018-11-05T08:17:57.209Z,9.10
2018-11-05T08:20:27.870Z,9.10
2018-11-05T08:23:00.026Z,9.20
2018-11-05T08:25:29.548Z,9.20
2018-11-05T08:27:58.237Z,9.30
2018-11-05T08:30:27.315Z,9.30
2018-11-05T08:32:57.203Z,9.40
2018-11-05T08:35:26.389Z,9.50
2018-11-05T08:37:56.033Z,9.60
2018-11-05T08:40:26.875Z,9.80
2018-11-05T08:42:56.205Z,9.90
2018-11-05T08:45:27.592Z,9.90
2018-11-05T08:47:56.720Z,10.00
2018-11-05T08:50:26.358Z,10.00
2018-11-05T08:52:55.386Z,10.10
2018-11-05T08:55:25.959Z,10.10
2018-11-05T08:57:55.395Z,10.30
2018-11-05T09:00:29.614Z,10.40
2018-11-05T09:02:58.582Z,10.50
2018-11-05T09:05:28.346Z,10.60
2018-11-05T09:07:57.397Z,10.70
2018-11-05T09:10:26.738Z,10.80
2018-11-05T09:12:55.530Z,10.90
2018-11-05T09:15:24.707Z,11.00
2018-11-05T09:17:53.888Z,11.00
2018-11-05T09:20:23.064Z,11.10
2018-11-05T09:22:52.300Z,11.20
2018-11-05T09:25:21.233Z,11.20
2018-11-05T09:27:50.378Z,11.30
2018-11-05T09:30:21.551Z,11.30
2018-11-05T09:32:51.726Z,11.50
2018-11-05T09:35:24.149Z,11.50
2018-11-05T09:37:59.927Z,11.60
2018-11-05T09:40:29.307Z,11.70
2018-11-05T09:42:58.323Z,11.80
2018-11-05T09:45:28.403Z,11.90
2018-11-05T09:47:57.278Z,11.90
2018-11-05T09:50:26.462Z,12.00
2018-11-05T09:52:55.279Z,12.10
2018-11-05T09:55:24.221Z,12.10
2018-11-05T09:57:52.996Z,12.10
2018-11-05T10:00:24.871Z,12.20
2018-11-05T10:02:56.814Z,12.20
2018-11-05T10:05:26.098Z,12.20
2018-11-05T10:07:54.774Z,12.20
2018-11-05T10:10:23.990Z,12.20
2018-11-05T10:12:53.202Z,12.30
2018-11-05T10:15:22.380Z,12.30
2018-11-05T10:17:51.342Z,12.40
2018-11-05T10:20:22.516Z,12.40
2018-11-05T10:22:51.489Z,12.50
2018-11-05T10:25:20.725Z,12.50
2018-11-05T10:27:50.521Z,12.60
2018-11-05T10:30:22.052Z,12.70
2018-11-05T10:32:50.936Z,12.80
2018-11-05T10:35:20.349Z,12.90
2018-11-05T10:37:49.722Z,12.90
2018-11-05T10:40:19.981Z,13.00
2018-11-05T10:42:48.891Z,13.00
2018-11-05T10:45:18.872Z,13.00
2018-11-05T10:47:47.683Z,13.10
2018-11-05T10:50:17.713Z,13.10
2018-11-05T10:52:48.514Z,13.20
2018-11-05T10:55:17.302Z,13.30
2018-11-05T10:57:46.767Z,13.40
2018-11-05T11:00:22.677Z,13.50
2018-11-05T11:02:57.609Z,13.70
2018-11-05T11:05:27.401Z,13.80
2018-11-05T11:07:57.642Z,13.80
2018-11-05T11:10:27.866Z,13.90
2018-11-05T11:12:56.937Z,14.10
2018-11-05T11:15:25.781Z,14.20
2018-11-05T11:17:55.280Z,14.30
2018-11-05T11:20:24.548Z,14.30
2018-11-05T11:22:53.581Z,14.50
2018-11-05T11:25:22.963Z,14.70
2018-11-05T11:27:52.847Z,14.70
2018-11-05T11:30:22.067Z,14.80
2018-11-05T11:32:52.204Z,15.20
2018-11-05T11:35:21.780Z,15.60
2018-11-05T11:37:51.061Z,16.10
2018-11-05T11:40:21.903Z,17.30
2018-11-05T11:42:51.794Z,19.10
2018-11-05T11:45:22.008Z,19.30
2018-11-05T11:47:51.250Z,19.00
2018-11-05T11:50:20.710Z,18.50
2018-11-05T11:52:50.369Z,18.40
2018-11-05T11:55:21.934Z,18.20
2018-11-05T11:57:51.009Z,18.90
2018-11-05T12:00:21.243Z,20.30
2018-11-05T12:02:51.337Z,19.60
2018-11-05T12:05:20.887Z,18.80
2018-11-05T12:07:50.209Z,18.30
2018-11-05T12:10:21.214Z,18.20
2018-11-05T12:12:50.638Z,17.90
2018-11-05T12:15:20.424Z,17.50
2018-11-05T12:17:51.097Z,17.10
2018-11-05T12:20:21.785Z,16.80
2018-11-05T12:22:52.117Z,17.60
2018-11-05T12:25:21.390Z,18.90
2018-11-05T12:27:50.974Z,20.40
2018-11-05T12:30:23.181Z,21.50
2018-11-05T12:32:53.566Z,22.00
2018-11-05T12:35:22.599Z,22.60
2018-11-05T12:37:52.305Z,22.80
2018-11-05T12:40:21.911Z,23.10
2018-11-05T12:42:51.977Z,23.10
2018-11-05T12:45:21.087Z,23.00
2018-11-05T12:47:50.026Z,23.10
2018-11-05T12:50:20.502Z,23.60
2018-11-05T12:52:50.281Z,23.20
2018-11-05T12:55:19.071Z,22.90
2018-11-05T12:57:48.169Z,22.80
2018-11-05T13:00:20.046Z,22.90
2018-11-05T13:02:53.065Z,23.40
2018-11-05T13:05:22.360Z,23.40
2018-11-05T13:07:52.014Z,23.70
2018-11-05T13:10:21.196Z,23.60
2018-11-05T13:12:50.352Z,22.80
2018-11-05T13:15:19.641Z,21.60
2018-11-05T13:17:48.635Z,19.80
2018-11-05T13:20:22.522Z,18.50
2018-11-05T13:22:51.605Z,17.60
2018-11-05T13:25:20.466Z,17.20
2018-11-05T13:27:50.178Z,17.00
2018-11-05T13:30:19.161Z,16.80
2018-11-05T13:32:48.330Z,16.50
2018-11-05T13:35:19.444Z,16.40
2018-11-05T13:37:48.759Z,16.30
2018-11-05T13:40:20.456Z,16.30
2018-11-05T13:42:49.556Z,16.30
2018-11-05T13:45:18.593Z,16.10
2018-11-05T13:47:48.441Z,16.10
2018-11-05T13:50:18.204Z,16.10
2018-11-05T13:52:46.784Z,16.00
2018-11-05T13:55:16.782Z,16.20
2018-11-05T13:57:47.086Z,17.30
2018-11-05T14:00:17.404Z,18.50
2018-11-05T14:02:46.523Z,18.50
2018-11-05T14:05:15.306Z,18.10
2018-11-05T14:07:45.353Z,17.50
2018-11-05T14:10:16.037Z,16.90
2018-11-05T14:12:45.935Z,17.30
2018-11-05T14:15:14.790Z,18.60
2018-11-05T14:17:44.526Z,20.30
2018-11-05T14:20:14.333Z,21.30
2018-11-05T14:22:43.396Z,22.70
2018-11-05T14:25:13.596Z,22.90
2018-11-05T14:27:43.967Z,22.50
2018-11-05T14:30:13.645Z,21.80
2018-11-05T14:32:43.715Z,20.90
2018-11-05T14:35:13.028Z,19.70
2018-11-05T14:37:42.658Z,18.40
2018-11-05T14:40:13.508Z,17.60
2018-11-05T14:42:42.823Z,17.00
2018-11-05T14:45:13.429Z,16.60
2018-11-05T14:47:48.274Z,16.40
2018-11-05T14:50:18.641Z,16.10
2018-11-05T14:52:47.780Z,15.90
2018-11-05T14:55:18.099Z,15.70
2018-11-05T14:57:48.331Z,15.50
2018-11-05T15:00:20.134Z,15.40
2018-11-05T15:02:50.912Z,15.30
2018-11-05T15:05:20.014Z,15.30
2018-11-05T15:07:49.994Z,15.30
2018-11-05T15:10:21.412Z,15.20
2018-11-05T15:12:50.427Z,15.10
2018-11-05T15:15:20.058Z,15.00
2018-11-05T15:17:49.129Z,14.90
2018-11-05T15:20:19.753Z,14.90
2018-11-05T15:22:48.524Z,14.90
2018-11-05T15:25:20.209Z,14.80
2018-11-05T15:27:49.370Z,14.80
2018-11-05T15:30:20.191Z,14.70
2018-11-05T15:32:49.833Z,14.70
2018-11-05T15:35:19.075Z,14.70
2018-11-05T15:37:48.132Z,14.60
2018-11-05T15:40:18.276Z,14.60
2018-11-05T15:42:47.484Z,14.50
2018-11-05T15:45:17.967Z,14.50
2018-11-05T15:47:46.935Z,14.40
2018-11-05T15:50:18.155Z,14.40
2018-11-05T15:52:47.526Z,14.30
2018-11-05T15:55:16.560Z,14.20
2018-11-05T15:57:45.485Z,14.10
2018-11-05T16:00:20.300Z,14.00
2018-11-05T16:02:50.585Z,13.90
2018-11-05T16:05:19.573Z,13.90
2018-11-05T16:07:48.815Z,13.70
2018-11-05T16:10:18.376Z,13.70
2018-11-05T16:12:47.372Z,13.60
2018-11-05T16:15:16.712Z,13.50
2018-11-05T16:17:45.645Z,13.40
2018-11-05T16:20:15.880Z,13.40
2018-11-05T16:22:45.925Z,13.40
2018-11-05T16:25:15.224Z,13.30
2018-11-05T16:27:45.708Z,13.30
2018-11-05T16:30:17.364Z,13.30
2018-11-05T16:32:47.475Z,13.20
2018-11-05T16:35:16.563Z,13.20
2018-11-05T16:37:45.793Z,13.10
2018-11-05T16:40:15.720Z,13.10
2018-11-05T16:42:45.674Z,13.10
2018-11-05T16:45:14.852Z,13.10
2018-11-05T16:47:44.472Z,13.10
2018-11-05T16:50:18.208Z,13.10
2018-11-05T16:52:47.440Z,13.00
2018-11-05T16:55:16.437Z,12.90
2018-11-05T16:57:45.555Z,12.80
2018-11-05T17:00:15.141Z,12.80
2018-11-05T17:02:45.538Z,12.80
2018-11-05T17:05:14.349Z,12.70
2018-11-05T17:07:43.577Z,12.70
2018-11-05T17:10:13.785Z,12.60
2018-11-05T17:12:43.720Z,12.60
2018-11-05T17:15:14.217Z,12.50
2018-11-05T17:17:43.649Z,12.50
2018-11-05T17:20:14.417Z,12.50
2018-11-05T17:22:43.975Z,12.50
2018-11-05T17:25:13.771Z,12.50
2018-11-05T17:27:43.707Z,12.50
2018-11-05T17:30:15.092Z,12.50
2018-11-05T17:32:47.176Z,12.50
2018-11-05T17:35:16.777Z,12.50
2018-11-05T17:37:46.334Z,12.50
2018-11-05T17:40:16.537Z,12.50
2018-11-05T17:42:45.619Z,12.50
2018-11-05T17:45:16.013Z,12.40
2018-11-05T17:47:45.345Z,12.40
2018-11-05T17:50:15.956Z,12.40
2018-11-05T17:52:46.043Z,12.40
2018-11-05T17:55:15.438Z,12.30
2018-11-05T17:57:45.303Z,12.30
2018-11-05T18:00:22.156Z,12.20
2018-11-05T18:02:51.116Z,12.20
2018-11-05T18:05:20.432Z,12.10
2018-11-05T18:07:49.413Z,12.10
2018-11-05T18:10:18.174Z,12.00
2018-11-05T18:12:47.171Z,12.00
2018-11-05T18:15:16.420Z,12.00
2018-11-05T18:17:46.276Z,11.90
2018-11-05T18:20:16.064Z,12.00
2018-11-05T18:22:44.668Z,11.90
2018-11-05T18:25:14.994Z,11.90
2018-11-05T18:27:44.402Z,11.80
2018-11-05T18:30:14.134Z,11.80
2018-11-05T18:32:43.134Z,11.80
2018-11-05T18:35:12.997Z,11.70
2018-11-05T18:37:43.187Z,11.70
2018-11-05T18:40:13.748Z,11.70
2018-11-05T18:42:43.473Z,11.60
2018-11-05T18:45:12.839Z,11.60
2018-11-05T18:47:41.758Z,11.60
2018-11-05T18:50:12.317Z,11.50
2018-11-05T18:52:41.302Z,11.50
2018-11-05T18:55:11.715Z,11.50
2018-11-05T18:57:41.009Z,11.50
2018-11-05T19:00:31.690Z,11.50
2018-11-05T19:03:00.947Z,11.50
2018-11-05T19:05:30.542Z,11.50
2018-11-05T19:07:59.329Z,11.50
2018-11-05T19:10:28.134Z,11.50
2018-11-05T19:12:56.840Z,11.50
2018-11-05T19:15:25.523Z,11.50
2018-11-05T19:17:54.418Z,11.50
2018-11-05T19:20:23.405Z,11.50
2018-11-05T19:22:52.634Z,11.50
2018-11-05T19:25:23.639Z,11.50
2018-11-05T19:27:52.569Z,11.50
2018-11-05T19:30:23.004Z,11.50
2018-11-05T19:32:52.114Z,11.50
2018-11-05T19:35:21.303Z,11.50
2018-11-05T19:37:50.034Z,11.50
2018-11-05T19:40:19.911Z,11.60
2018-11-05T19:42:49.664Z,11.60
2018-11-05T19:45:21.046Z,11.60
2018-11-05T19:47:50.053Z,11.60
2018-11-05T19:50:20.518Z,11.60
2018-11-05T19:52:51.898Z,11.60
2018-11-05T19:55:21.393Z,11.60
2018-11-05T19:57:51.088Z,11.60
2018-11-05T20:00:27.197Z,11.70
2018-11-05T20:02:57.581Z,11.70
2018-11-05T20:05:26.856Z,11.70
2018-11-05T20:07:56.967Z,11.70
2018-11-05T20:10:25.883Z,11.70
2018-11-05T20:12:54.731Z,11.60
2018-11-05T20:15:23.638Z,11.70
2018-11-05T20:17:53.532Z,11.70
2018-11-05T20:20:23.338Z,11.70
2018-11-05T20:22:52.186Z,11.70
2018-11-05T20:25:21.759Z,11.70
2018-11-05T20:27:50.656Z,11.70
2018-11-05T20:30:24.795Z,11.70
2018-11-05T20:32:54.987Z,11.70
2018-11-05T20:35:23.398Z,11.70
2018-11-05T20:37:52.244Z,11.70
2018-11-05T20:40:22.413Z,11.70
2018-11-05T20:42:51.892Z,11.70
2018-11-05T20:45:22.005Z,11.70
2018-11-05T20:47:51.012Z,11.70
2018-11-05T20:50:20.293Z,11.60
2018-11-05T20:52:49.688Z,11.60
2018-11-05T20:55:18.716Z,11.60
2018-11-05T20:57:47.492Z,11.60
2018-11-05T21:00:17.988Z,11.60
2018-11-05T21:02:46.555Z,11.60
2018-11-05T21:05:15.360Z,11.60
2018-11-05T21:07:44.611Z,11.60
2018-11-05T21:10:14.228Z,11.60
2018-11-05T21:12:43.777Z,11.60
2018-11-05T21:15:14.614Z,11.60
2018-11-05T21:17:44.697Z,11.60
2018-11-05T21:20:14.262Z,11.60
2018-11-05T21:22:43.340Z,11.50
2018-11-05T21:25:12.028Z,11.50
2018-11-05T21:27:41.424Z,11.40
2018-11-05T21:30:12.052Z,11.40
2018-11-05T21:32:40.759Z,11.40
2018-11-05T21:35:11.692Z,11.40
2018-11-05T21:37:40.787Z,11.40
2018-11-05T21:40:10.322Z,11.40
2018-11-05T21:42:39.581Z,11.30
2018-11-05T21:45:10.036Z,11.40
2018-11-05T21:47:39.124Z,11.30
2018-11-05T21:50:11.151Z,11.30
2018-11-05T21:52:40.885Z,11.30
2018-11-05T21:55:10.015Z,11.30
2018-11-05T21:57:40.977Z,11.30
2018-11-05T22:00:13.771Z,11.30
2018-11-05T22:02:47.947Z,11.40
2018-11-05T22:05:17.418Z,11.40
2018-11-05T22:07:46.555Z,11.40
2018-11-05T22:10:15.485Z,11.30
2018-11-05T22:12:45.110Z,11.30
2018-11-05T22:15:14.068Z,11.30
2018-11-05T22:17:43.065Z,11.30
2018-11-05T22:20:12.404Z,11.20
2018-11-05T22:22:41.521Z,11.20
2018-11-05T22:25:11.267Z,11.10
2018-11-05T22:27:40.347Z,11.10
2018-11-05T22:30:10.573Z,11.10
2018-11-05T22:32:39.132Z,11.10
2018-11-05T22:35:08.217Z,11.10
2018-11-05T22:37:37.167Z,11.10
2018-11-05T22:40:08.049Z,11.10
2018-11-05T22:42:36.938Z,11.00
2018-11-05T22:45:05.894Z,11.00
2018-11-05T22:47:34.672Z,11.00
2018-11-05T22:50:03.638Z,10.90
2018-11-05T22:52:32.231Z,10.90
2018-11-05T22:55:01.543Z,10.90
2018-11-05T22:57:30.718Z,10.80
2018-11-05T23:00:00.131Z,10.80
2018-11-05T23:02:28.765Z,10.80
2018-11-05T23:04:57.502Z,10.80
2018-11-05T23:07:26.288Z,10.80
2018-11-05T23:09:55.249Z,10.80
2018-11-05T23:12:24.089Z,10.70
2018-11-05T23:14:52.765Z,10.70
2018-11-05T23:17:21.805Z,10.70
2018-11-05T23:19:50.884Z,10.70
2018-11-05T23:22:19.892Z,10.60
2018-11-05T23:24:48.933Z,10.60
2018-11-05T23:27:18.140Z,10.60
2018-11-05T23:29:47.139Z,10.60
2018-11-05T23:32:16.102Z,10.60
2018-11-05T23:34:44.954Z,10.60
2018-11-05T23:37:13.708Z,10.60
2018-11-05T23:39:42.894Z,10.70
2018-11-05T23:42:12.124Z,10.70
2018-11-05T23:44:41.077Z,10.70
2018-11-05T23:47:10.583Z,10.70
2018-11-05T23:49:39.369Z,10.70
2018-11-05T23:52:08.109Z,10.70
2018-11-05T23:54:37.254Z,10.70
2018-11-05T23:57:06.675Z,10.70
2018-11-05T23:59:35.443Z,10.80
